Time;durP1;ratioP1;P1;durP2;ratioP2;P2;SDS_P1;SDS_P2;PMS_P1;PMS_P2;Temp;Humidity;BMP_temperature;BMP_pressure;BME280_temperature;BME280_humidity;BME280_pressure;Samples;Min_cycle;Max_cycle;Signal;HPM_P1;HPM_P2
2023/02/18 00:08:41;;;;;;;9.80;5.43;;;10.20;99.90;;;;;;20673473;28;20057;-75
2023/02/18 00:18:42;;;;;;;5.57;3.78;;;10.20;99.90;;;;;;20630600;28;20126;-76
2023/02/18 00:28:43;;;;;;;8.37;5.07;;;10.20;99.90;;;;;;20659837;28;20058;-76
2023/02/18 00:38:50;;;;;;;5.88;3.58;;;10.20;99.90;;;;;;20671262;28;20405;-76
2023/02/18 00:48:51;;;;;;;5.88;2.53;;;10.30;99.90;;;;;;20670783;28;20035;-76
2023/02/18 00:58:53;;;;;;;4.22;2.42;;;10.30;99.90;;;;;;20669816;28;20038;-74
2023/02/18 01:08:54;;;;;;;3.30;1.90;;;10.40;99.90;;;;;;20669450;28;20037;-76
2023/02/18 01:18:56;;;;;;;4.13;2.10;;;10.60;99.90;;;;;;20668195;28;20058;-76
2023/02/18 01:28:56;;;;;;;5.67;2.13;;;10.50;99.90;;;;;;20665377;28;20406;-76
2023/02/18 01:38:57;;;;;;;4.37;2.33;;;10.50;99.90;;;;;;20671236;28;20057;-76
2023/02/18 01:49:00;;;;;;;3.47;2.00;;;10.30;99.90;;;;;;20669136;28;20094;-76
2023/02/18 01:59:06;;;;;;;6.13;2.35;;;10.20;99.90;;;;;;20667092;28;20485;-75
2023/02/18 02:09:11;;;;;;;2.30;1.40;;;10.20;99.90;;;;;;20662730;28;20042;-75
2023/02/18 02:19:14;;;;;;;2.00;1.27;;;10.40;99.90;;;;;;20661611;28;20038;-75
2023/02/18 02:29:27;;;;;;;2.70;1.50;;;10.40;99.90;;;;;;20657843;28;20039;-75
2023/02/18 02:40:08;;;;;;;3.00;1.90;;;10.50;99.90;;;;;;20702953;28;20525;-76
2023/02/18 02:50:16;;;;;;;4.47;2.22;;;10.30;99.90;;;;;;20691546;28;20034;-75
2023/02/18 03:00:22;;;;;;;2.78;2.00;;;10.20;99.90;;;;;;20724456;28;20139;-75
2023/02/18 03:10:40;;;;;;;3.85;1.50;;;10.20;99.90;;;;;;20676802;28;20031;-76
2023/02/18 03:20:51;;;;;;;2.75;1.48;;;10.10;99.90;;;;;;20661718;28;20033;-75
2023/02/18 03:30:59;;;;;;;1.70;1.30;;;10.10;99.90;;;;;;20672495;28;20130;-75
2023/02/18 03:41:00;;;;;;;3.40;1.38;;;10.10;99.90;;;;;;20704616;28;20022;-75
2023/02/18 03:51:01;;;;;;;2.27;1.20;;;10.20;99.90;;;;;;20707006;28;20104;-75
2023/02/18 04:01:03;;;;;;;2.57;1.30;;;10.30;99.90;;;;;;20705240;28;20324;-75
2023/02/18 04:11:04;;;;;;;2.00;1.40;;;10.20;99.90;;;;;;20688545;28;20080;-76
2023/02/18 04:21:05;;;;;;;2.90;1.40;;;10.20;99.90;;;;;;20733964;28;20034;-75
2023/02/18 04:31:06;;;;;;;1.30;0.93;;;10.20;99.90;;;;;;20726741;28;20041;-76
2023/02/18 04:41:07;;;;;;;1.33;0.83;;;10.20;99.90;;;;;;20686913;28;20494;-76
2023/02/18 04:51:08;;;;;;;0.93;0.68;;;10.40;99.90;;;;;;20707380;28;20052;-76
2023/02/18 05:01:09;;;;;;;0.47;0.43;;;10.40;99.90;;;;;;20676184;28;20034;-76
2023/02/18 05:11:10;;;;;;;1.98;0.80;;;10.50;99.90;;;;;;20690925;28;20046;-76
2023/02/18 05:21:11;;;;;;;0.53;0.40;;;10.60;99.90;;;;;;20693087;28;20628;-75
2023/02/18 05:31:12;;;;;;;0.53;0.50;;;10.70;99.90;;;;;;20664207;28;20062;-76
2023/02/18 05:41:13;;;;;;;0.97;0.50;;;10.70;99.90;;;;;;20645045;28;20034;-76
2023/02/18 05:51:14;;;;;;;0.60;0.40;;;10.70;99.90;;;;;;20631920;28;20035;-75
2023/02/18 06:01:14;;;;;;;1.30;0.57;;;10.70;99.90;;;;;;20642279;28;20441;-74
2023/02/18 06:11:15;;;;;;;3.30;0.83;;;10.50;99.90;;;;;;20671837;28;20033;-75
2023/02/18 06:21:16;;;;;;;5.37;1.60;;;10.50;99.90;;;;;;20730878;28;20040;-75
2023/02/18 06:31:17;;;;;;;2.17;1.25;;;10.50;99.90;;;;;;20697462;28;20069;-75
2023/02/18 06:41:18;;;;;;;3.47;0.80;;;10.30;99.90;;;;;;20703972;28;20039;-75
2023/02/18 06:51:19;;;;;;;3.50;0.80;;;10.50;99.90;;;;;;20676405;28;20027;-76
2023/02/18 07:01:20;;;;;;;3.37;0.63;;;10.40;99.90;;;;;;20700103;28;20164;-75
2023/02/18 07:11:20;;;;;;;1.40;1.30;;;10.40;99.90;;;;;;20678333;28;20038;-77
2023/02/18 07:21:21;;;;;;;1.20;0.60;;;10.70;99.90;;;;;;20676600;28;20489;-77
2023/02/18 07:31:22;;;;;;;0.97;0.70;;;10.90;99.90;;;;;;20675500;28;20652;-76
2023/02/18 07:41:23;;;;;;;1.87;1.00;;;10.90;99.90;;;;;;20689218;28;20029;-76
2023/02/18 07:51:24;;;;;;;4.23;0.90;;;10.90;99.90;;;;;;20756358;28;20057;-76
2023/02/18 08:01:24;;;;;;;3.03;1.53;;;11.00;99.90;;;;;;20755107;28;20046;-76
2023/02/18 08:11:26;;;;;;;2.30;0.90;;;11.10;99.90;;;;;;20674792;28;20070;-75
2023/02/18 08:21:27;;;;;;;1.70;0.50;;;11.30;99.90;;;;;;20656919;28;20505;-76
2023/02/18 08:31:30;;;;;;;1.93;0.80;;;11.50;99.90;;;;;;20628102;28;20546;-76
2023/02/18 08:41:32;;;;;;;1.75;0.73;;;11.60;99.90;;;;;;20629683;28;20073;-77
2023/02/18 08:51:33;;;;;;;2.07;0.70;;;11.60;99.90;;;;;;20629544;28;20478;-77
2023/02/18 09:01:33;;;;;;;4.22;1.20;;;11.70;99.90;;;;;;20628754;28;20038;-77
2023/02/18 09:11:35;;;;;;;1.13;0.60;;;11.90;99.90;;;;;;20674649;28;20030;-76
2023/02/18 09:21:36;;;;;;;2.05;0.70;;;12.00;99.90;;;;;;20666451;28;20041;-77
2023/02/18 09:31:38;;;;;;;0.67;0.40;;;12.00;99.90;;;;;;20602385;28;20034;-77
2023/02/18 09:41:43;;;;;;;0.80;0.40;;;12.00;99.90;;;;;;20609734;28;20560;-76
2023/02/18 09:51:45;;;;;;;0.70;0.38;;;12.10;99.90;;;;;;20667403;28;20512;-78
2023/02/18 10:01:50;;;;;;;1.33;0.45;;;12.30;99.90;;;;;;20653101;28;20128;-77
2023/02/18 10:11:56;;;;;;;1.55;0.73;;;12.50;99.90;;;;;;20727303;28;20041;-77
2023/02/18 10:21:57;;;;;;;2.92;0.60;;;12.80;99.90;;;;;;20688051;28;20350;-77
2023/02/18 10:32:03;;;;;;;0.43;0.40;;;13.00;99.90;;;;;;20678125;28;20128;-77
2023/02/18 10:42:48;;;;;;;0.40;0.40;;;13.00;99.90;;;;;;20697424;28;20046;-78
2023/02/18 10:52:54;;;;;;;1.23;0.40;;;13.10;99.90;;;;;;20674361;28;20084;-76
2023/02/18 11:03:21;;;;;;;0.93;0.47;;;13.60;99.90;;;;;;20732084;28;20042;-77
2023/02/18 11:13:31;;;;;;;0.70;0.40;;;13.80;99.90;;;;;;20725534;28;20037;-76
2023/02/18 11:23:46;;;;;;;2.65;0.43;;;13.60;99.90;;;;;;20669104;28;20370;-75
2023/02/18 11:33:54;;;;;;;0.55;0.40;;;14.20;99.90;;;;;;20641472;28;20034;-76
2023/02/18 11:43:55;;;;;;;0.73;0.30;;;15.40;99.90;;;;;;20635309;28;20038;-76
2023/02/18 11:53:58;;;;;;;0.67;0.40;;;15.90;99.90;;;;;;20642056;28;20409;-77
2023/02/18 12:04:18;;;;;;;1.48;0.47;;;16.20;99.90;;;;;;20816291;22;20041;-76
2023/02/18 12:14:23;;;;;;;1.10;0.43;;;17.10;99.90;;;;;;20829206;28;20037;-77
2023/02/18 12:25:04;;;;;;;0.73;0.47;;;16.90;99.90;;;;;;20825568;28;20041;-81
2023/02/18 12:35:14;;;;;;;0.30;0.30;;;17.00;99.90;;;;;;20735997;28;20142;-79
2023/02/18 12:45:14;;;;;;;0.20;0.20;;;16.20;99.90;;;;;;20789584;28;20029;-77
2023/02/18 12:55:34;;;;;;;0.60;0.37;;;16.50;99.90;;;;;;20789260;28;20124;-78
2023/02/18 13:05:54;;;;;;;1.10;0.47;;;16.60;99.90;;;;;;20789509;28;20092;-77
2023/02/18 13:16:02;;;;;;;2.67;0.50;;;16.20;99.90;;;;;;20810927;28;20115;-79
2023/02/18 13:26:06;;;;;;;1.58;0.47;;;16.70;99.90;;;;;;20807161;28;20582;-79
2023/02/18 13:36:32;;;;;;;0.85;0.40;;;17.20;99.90;;;;;;20822051;28;20487;-78
2023/02/18 13:46:51;;;;;;;0.63;0.50;;;16.70;99.90;;;;;;20794545;28;20025;-77
2023/02/18 13:57:02;;;;;;;0.52;0.38;;;17.10;99.90;;;;;;20827391;28;20120;-76
2023/02/18 14:07:40;;;;;;;0.55;0.52;;;16.90;99.90;;;;;;20812810;28;20167;-78
2023/02/18 14:17:43;;;;;;;3.30;0.60;;;16.30;99.90;;;;;;20824980;28;20033;-78
2023/02/18 14:27:44;;;;;;;1.38;0.90;;;16.20;99.90;;;;;;20816359;28;20065;-76
2023/02/18 14:38:02;;;;;;;0.87;0.50;;;16.00;99.90;;;;;;20794387;28;20679;-78
2023/02/18 14:48:21;;;;;;;3.67;0.80;;;16.30;99.90;;;;;;20747619;28;20706;-78
2023/02/18 14:58:31;;;;;;;1.88;1.30;;;16.40;99.90;;;;;;20741372;28;20034;-77
2023/02/18 15:08:37;;;;;;;1.20;0.77;;;16.10;99.90;;;;;;20815353;28;20039;-78
2023/02/18 15:18:44;;;;;;;7.63;2.80;;;16.00;99.90;;;;;;20815570;28;20034;-77
2023/02/18 15:29:02;;;;;;;6.53;2.22;;;15.30;99.90;;;;;;20830080;28;20511;-78
2023/02/18 15:39:04;;;;;;;7.03;1.80;;;14.80;99.90;;;;;;20861822;28;20116;-76
2023/02/18 15:49:06;;;;;;;;;;;14.70;99.90;;;;;;20842543;28;20041;-79
2023/02/18 15:59:18;;;;;;;6.33;2.77;;;14.30;99.90;;;;;;20835404;28;19956;-78
2023/02/18 16:09:29;;;;;;;4.20;2.13;;;13.70;99.90;;;;;;20846031;28;20131;-75
2023/02/18 16:19:31;;;;;;;4.37;2.03;;;13.60;99.90;;;;;;20857584;28;20037;-78
2023/02/18 16:29:43;;;;;;;2.22;1.02;;;13.20;99.90;;;;;;20916087;28;20102;-78
2023/02/18 16:39:44;;;;;;;1.90;1.02;;;13.10;99.90;;;;;;20870127;28;20068;-79
2023/02/18 16:49:47;;;;;;;1.47;0.80;;;12.80;99.90;;;;;;20836382;28;20033;-78
2023/02/18 16:59:49;;;;;;;1.83;1.08;;;12.60;99.90;;;;;;20840653;28;20048;-78
2023/02/18 17:09:50;;;;;;;2.10;1.25;;;12.30;99.90;;;;;;20815890;28;20395;-78
2023/02/18 17:19:51;;;;;;;2.03;1.27;;;12.30;99.90;;;;;;20841119;28;20037;-79
2023/02/18 17:29:52;;;;;;;2.03;1.37;;;12.10;99.90;;;;;;20831937;28;20083;-79
2023/02/18 17:39:53;;;;;;;3.63;0.93;;;11.90;99.90;;;;;;20874359;28;20028;-80
2023/02/18 17:49:54;;;;;;;2.83;1.87;;;11.80;99.90;;;;;;20857688;28;20526;-78
2023/02/18 17:59:54;;;;;;;1.80;1.10;;;11.80;99.90;;;;;;20883917;28;20219;-76
2023/02/18 18:09:55;;;;;;;2.60;1.07;;;11.70;99.90;;;;;;20806868;28;20488;-76
2023/02/18 18:19:56;;;;;;;4.60;2.63;;;11.60;99.90;;;;;;20727875;28;20072;-79
2023/02/18 18:29:57;;;;;;;2.30;1.60;;;11.60;99.90;;;;;;20728047;28;20101;-77
2023/02/18 18:39:58;;;;;;;3.43;1.50;;;11.60;99.90;;;;;;20834374;28;20460;-77
2023/02/18 18:49:58;;;;;;;2.27;1.00;;;11.80;99.90;;;;;;20823549;28;20044;-77
2023/02/18 18:59:59;;;;;;;1.97;1.10;;;11.90;99.90;;;;;;20798334;28;20057;-80
2023/02/18 19:10:00;;;;;;;2.90;1.30;;;11.80;99.90;;;;;;20808472;28;20045;-77
2023/02/18 19:20:01;;;;;;;2.40;1.23;;;11.70;99.90;;;;;;20819417;28;20543;-77
2023/02/18 19:30:02;;;;;;;2.67;1.43;;;11.80;99.90;;;;;;20838207;28;20061;-77
2023/02/18 19:40:06;;;;;;;1.75;1.20;;;11.70;99.90;;;;;;20812298;28;20040;-77
2023/02/18 19:50:10;;;;;;;2.67;1.40;;;11.80;99.90;;;;;;20790290;28;20511;-78
2023/02/18 20:00:13;;;;;;;2.22;1.67;;;11.60;99.90;;;;;;20852045;28;20523;-79
2023/02/18 20:10:18;;;;;;;3.03;1.58;;;11.60;99.90;;;;;;20806676;28;20026;-79
2023/02/18 20:20:19;;;;;;;2.38;1.48;;;11.50;99.90;;;;;;20847515;28;20057;-80
2023/02/18 20:30:20;;;;;;;3.40;1.53;;;11.50;99.90;;;;;;20820499;28;20038;-76
2023/02/18 20:40:21;;;;;;;4.13;1.60;;;11.50;99.90;;;;;;20804053;28;20064;-78
2023/02/18 20:50:22;;;;;;;2.00;1.20;;;11.50;99.90;;;;;;20830640;28;20041;-79
2023/02/18 21:00:23;;;;;;;1.92;1.30;;;11.50;99.90;;;;;;20848924;28;20118;-77
2023/02/18 21:10:24;;;;;;;3.50;1.30;;;11.60;99.90;;;;;;20828750;28;20034;-78
2023/02/18 21:20:25;;;;;;;1.50;1.17;;;11.50;99.90;;;;;;20834771;28;20096;-77
2023/02/18 21:30:27;;;;;;;1.57;1.17;;;11.60;99.90;;;;;;20818548;28;20030;-79
2023/02/18 21:40:28;;;;;;;4.43;1.20;;;11.60;99.90;;;;;;20806036;28;20042;-78
2023/02/18 21:50:29;;;;;;;2.00;1.17;;;11.50;99.90;;;;;;20805001;28;20037;-78
2023/02/18 22:00:29;;;;;;;2.23;1.30;;;11.50;99.90;;;;;;20808707;28;20072;-79
2023/02/18 22:10:30;;;;;;;2.63;1.23;;;11.60;99.90;;;;;;20830131;28;20550;-78
2023/02/18 22:20:31;;;;;;;2.47;1.30;;;11.60;99.90;;;;;;20814629;28;20041;-79
2023/02/18 22:30:32;;;;;;;1.57;1.03;;;11.60;99.90;;;;;;20809926;28;20361;-79
2023/02/18 22:40:33;;;;;;;2.93;1.37;;;11.60;99.90;;;;;;20825571;28;20033;-79
2023/02/18 22:50:34;;;;;;;2.23;1.23;;;11.50;99.90;;;;;;20829429;28;20558;-80
2023/02/18 23:00:35;;;;;;;1.42;0.95;;;11.40;99.90;;;;;;20754879;28;20509;-79
2023/02/18 23:10:35;;;;;;;1.40;0.90;;;11.30;99.90;;;;;;20803716;28;20029;-80
2023/02/18 23:31:18;;;;;;;2.80;0.93;;;11.40;99.90;;;;;;20391183;29;20051;-78
2023/02/18 23:41:19;;;;;;;1.40;0.90;;;11.50;99.90;;;;;;20448773;28;20445;-77
2023/02/18 23:51:21;;;;;;;;;;;11.50;99.90;;;;;;20424800;29;20592;-79
